createdAt,value
2023-08-09T03:16:09.023Z,100244.20
2023-08-09T03:18:36.981Z,100245.40
2023-08-09T03:21:04.978Z,100245.60
2023-08-09T03:23:32.913Z,100247.60
2023-08-09T03:26:02.307Z,100244.40
2023-08-09T03:28:30.622Z,100240.80
2023-08-09T03:30:58.543Z,100242.20
2023-08-09T03:33:27.422Z,100245.60
2023-08-09T03:35:55.340Z,100244.00
2023-08-09T03:38:23.209Z,100238.00
2023-08-09T03:40:51.299Z,100242.40
2023-08-09T03:43:19.173Z,100243.00
2023-08-09T03:45:47.078Z,100246.80
2023-08-09T03:48:15.142Z,100256.80
2023-08-09T03:50:43.181Z,100257.60
2023-08-09T03:53:11.090Z,100248.00
2023-08-09T03:55:39.161Z,100258.40
2023-08-09T03:58:07.202Z,100250.80
2023-08-09T04:00:35.256Z,100252.00
2023-08-09T04:03:04.052Z,100251.20
2023-08-09T04:05:32.049Z,100252.40
2023-08-09T04:08:02.223Z,100250.20
2023-08-09T04:10:30.567Z,100248.60
2023-08-09T04:12:58.473Z,100250.60
2023-08-09T04:49:50.031Z,100248.40
2023-08-09T04:52:17.982Z,100250.40
2023-08-09T04:54:46.133Z,100247.60
2023-08-09T04:57:14.215Z,100251.60
2023-08-09T04:59:42.154Z,100257.80
2023-08-09T05:02:10.037Z,100258.20
2023-08-09T05:04:38.037Z,100262.00
2023-08-09T05:07:06.156Z,100258.60
2023-08-09T05:09:35.509Z,100261.00
2023-08-09T05:12:03.452Z,100266.60
2023-08-09T05:14:31.720Z,100271.80
2023-08-09T05:17:00.558Z,100276.20
2023-08-09T05:19:29.043Z,100278.40
2023-08-09T05:21:56.965Z,100284.00
2023-08-09T05:24:24.861Z,100290.00
2023-08-09T05:26:52.852Z,100294.60
2023-08-09T05:29:20.819Z,100297.40
2023-08-09T05:31:48.937Z,100297.40
2023-08-09T05:34:16.811Z,100296.60
2023-08-09T05:36:45.651Z,100297.60
2023-08-09T05:39:14.220Z,100309.80
2023-08-09T05:41:42.151Z,100307.20
2023-08-09T05:44:10.191Z,100307.40
2023-08-09T05:46:38.177Z,100303.60
2023-08-09T05:49:06.122Z,100304.00
2023-08-09T05:51:34.122Z,100301.80
2023-08-09T05:54:02.050Z,100299.40
2023-08-09T06:05:09.643Z,100309.40
2023-08-09T06:07:37.584Z,100311.20
2023-08-09T06:12:51.686Z,100310.00
2023-08-09T06:15:21.569Z,100311.80
2023-08-09T06:17:49.924Z,100310.20
2023-08-09T06:20:22.986Z,100311.80
2023-08-09T06:22:51.169Z,100313.40
2023-08-09T06:25:20.410Z,100315.40
2023-08-09T06:27:48.274Z,100314.20
2023-08-09T06:30:16.935Z,100315.80
2023-08-09T06:32:44.753Z,100315.60
2023-08-09T06:35:12.950Z,100321.40
2023-08-09T06:37:40.703Z,100323.20
2023-08-09T06:40:09.355Z,100329.40
2023-08-09T06:42:37.241Z,100325.60
2023-08-09T06:45:07.025Z,100335.00
2023-08-09T06:47:34.986Z,100339.60
2023-08-09T06:50:07.168Z,100341.20
2023-08-09T06:52:37.351Z,100346.00
2023-08-09T06:55:09.812Z,100348.00
2023-08-09T06:57:37.917Z,100348.60
2023-08-09T07:00:16.620Z,100348.40
2023-08-09T07:02:49.253Z,100348.60
2023-08-09T07:05:20.231Z,100350.20
2023-08-09T07:07:56.195Z,100349.20
2023-08-09T07:10:28.364Z,100350.00
2023-08-09T07:12:56.401Z,100352.60
2023-08-09T07:15:24.441Z,100350.60
2023-08-09T07:17:52.557Z,100353.60
2023-08-09T07:20:20.709Z,100349.00
2023-08-09T07:22:48.571Z,100352.00
2023-08-09T07:25:18.007Z,100354.60
2023-08-09T07:27:50.371Z,100352.20
2023-08-09T07:30:19.217Z,100354.40
2023-08-09T07:32:47.418Z,100350.60
2023-08-09T07:35:17.439Z,100351.00
2023-08-09T07:37:47.450Z,100351.40
2023-08-09T07:40:16.250Z,100358.20
2023-08-09T07:42:44.795Z,100357.00
2023-08-09T07:45:13.664Z,100355.20
2023-08-09T07:47:43.081Z,100361.80
2023-08-09T07:50:12.949Z,100362.80
2023-08-09T07:52:40.858Z,100370.80
2023-08-09T07:55:10.210Z,100377.40
2023-08-09T07:57:38.458Z,100374.80
2023-08-09T08:00:15.275Z,100370.00
2023-08-09T08:02:47.558Z,100374.20
2023-08-09T08:05:16.889Z,100380.20
2023-08-09T08:07:45.513Z,100385.40
2023-08-09T08:10:15.750Z,100381.40
2023-08-09T08:12:47.093Z,100376.00
2023-08-09T08:15:16.324Z,100371.00
2023-08-09T08:17:44.607Z,100383.00
2023-08-09T08:20:17.024Z,100382.40
2023-08-09T08:22:47.367Z,100384.00
2023-08-09T08:25:17.460Z,100378.80
2023-08-09T08:27:47.229Z,100375.00
2023-08-09T08:30:22.120Z,100380.80
2023-08-09T08:32:53.012Z,100389.40
2023-08-09T08:35:34.996Z,100386.20
2023-08-09T08:38:04.725Z,100394.80
2023-08-09T08:40:33.073Z,100389.40
2023-08-09T08:43:01.253Z,100390.80
2023-08-09T08:45:29.401Z,100395.00
2023-08-09T08:47:58.781Z,100390.80
2023-08-09T08:50:26.817Z,100394.60
2023-08-09T08:52:56.140Z,100399.60
2023-08-09T08:55:25.411Z,100394.80
2023-08-09T08:57:54.471Z,100392.20
2023-08-09T09:00:27.637Z,100396.60
2023-08-09T09:03:00.787Z,100397.40
2023-08-09T09:05:28.995Z,100387.80
2023-08-09T09:07:59.890Z,100399.00
2023-08-09T09:10:28.117Z,100399.40
2023-08-09T09:12:57.631Z,100410.00
2023-08-09T09:15:28.351Z,100414.80
2023-08-09T09:17:56.828Z,100412.40
2023-08-09T09:20:31.791Z,100417.60
2023-08-09T09:23:00.990Z,100416.00
2023-08-09T09:25:29.044Z,100421.80
2023-08-09T09:27:58.194Z,100420.80
2023-08-09T09:30:31.057Z,100410.80
2023-08-09T09:33:06.616Z,100410.00
2023-08-09T09:35:35.028Z,100413.60
2023-08-09T09:38:06.821Z,100409.60
2023-08-09T09:40:38.026Z,100416.60
2023-08-09T09:43:07.229Z,100406.60
2023-08-09T09:45:38.419Z,100406.00
2023-08-09T09:48:20.327Z,100408.00
2023-08-09T09:50:50.760Z,100409.60
2023-08-09T09:53:21.021Z,100409.00
2023-08-09T09:55:49.366Z,100408.20
2023-08-09T09:58:17.584Z,100410.40
2023-08-09T10:00:54.554Z,100401.60
2023-08-09T10:03:29.595Z,100408.00
2023-08-09T10:06:00.932Z,100401.00
2023-08-09T10:08:30.764Z,100394.40
2023-08-09T10:11:00.805Z,100397.20
2023-08-09T10:13:31.923Z,100403.60
2023-08-09T10:16:06.786Z,100403.40
2023-08-09T10:18:40.641Z,100413.20
2023-08-09T10:21:11.898Z,100415.00
2023-08-09T10:23:39.996Z,100417.00
2023-08-09T10:26:11.315Z,100423.80
2023-08-09T10:28:46.825Z,100415.60
2023-08-09T10:41:33.859Z,100414.40
2023-08-09T10:44:03.393Z,100411.80
2023-08-09T10:46:35.818Z,100419.80
2023-08-09T10:49:06.708Z,100413.20
2023-08-09T10:51:34.648Z,100418.80
2023-08-09T10:54:07.276Z,100418.40
2023-08-09T10:56:43.154Z,100414.80
2023-08-09T10:59:22.424Z,100430.20
2023-08-09T11:01:51.274Z,100426.20
2023-08-09T11:04:19.647Z,100424.60
2023-08-09T11:06:51.095Z,100431.00
2023-08-09T11:09:26.048Z,100433.80
2023-08-09T11:11:55.183Z,100435.40
2023-08-09T11:15:00.834Z,100429.60
2023-08-09T11:17:28.829Z,100430.60
2023-08-09T11:19:57.006Z,100424.00
2023-08-09T11:22:24.945Z,100432.40
2023-08-09T11:24:52.915Z,100434.00
2023-08-09T11:27:20.808Z,100430.00
2023-08-09T11:29:48.888Z,100431.60
2023-08-09T11:32:16.754Z,100432.00
2023-08-09T11:34:44.579Z,100431.60
2023-08-09T11:37:14.188Z,100433.00
2023-08-09T11:39:42.097Z,100438.00
2023-08-09T11:42:10.032Z,100441.40
2023-08-09T11:44:39.980Z,100449.40
2023-08-09T11:47:08.667Z,100466.80
2023-08-09T11:49:37.014Z,100462.40
2023-08-09T11:52:05.597Z,100460.20
2023-08-09T11:54:34.001Z,100455.20
2023-08-09T11:57:08.330Z,100457.60
2023-08-09T11:59:41.144Z,100459.00
2023-08-09T12:02:09.237Z,100458.20
2023-08-09T12:04:39.078Z,100456.60
2023-08-09T12:07:11.305Z,100450.20
2023-08-09T12:09:42.139Z,100456.20
2023-08-09T12:12:15.328Z,100451.60
2023-08-09T12:14:49.326Z,100455.20
2023-08-09T12:17:27.354Z,100456.20
2023-08-09T12:19:58.661Z,100449.80
2023-08-09T12:22:28.127Z,100444.40
2023-08-09T12:24:58.469Z,100448.80
2023-08-09T12:27:28.037Z,100453.40
2023-08-09T12:29:56.933Z,100449.60
2023-08-09T12:32:26.012Z,100448.80
2023-08-09T12:34:54.202Z,100457.60
2023-08-09T12:37:22.105Z,100451.00
2023-08-09T12:39:50.055Z,100451.40
2023-08-09T12:42:18.118Z,100459.00
2023-08-09T12:44:46.325Z,100462.80
2023-08-09T12:47:14.995Z,100461.00
2023-08-09T12:49:42.953Z,100457.40
2023-08-09T12:52:10.851Z,100466.20
2023-08-09T12:54:38.936Z,100467.80
2023-08-09T12:57:06.891Z,100472.00
2023-08-09T12:59:34.969Z,100474.20
2023-08-09T13:02:03.063Z,100474.60
2023-08-09T13:04:31.578Z,100476.20
2023-08-09T13:06:59.977Z,100484.00
2023-08-09T13:09:29.956Z,100483.00
2023-08-09T13:12:11.731Z,100483.20
2023-08-09T13:14:39.948Z,100491.00
2023-08-09T13:17:08.782Z,100487.00
2023-08-09T13:19:38.339Z,100482.40
2023-08-09T13:22:07.405Z,100488.20
2023-08-09T13:24:35.842Z,100488.80
2023-08-09T13:27:04.813Z,100482.00
2023-08-09T13:29:32.625Z,100479.80
2023-08-09T13:32:02.969Z,100489.60
2023-08-09T13:34:31.292Z,100487.60
2023-08-09T13:36:59.269Z,100493.00
2023-08-09T13:39:27.531Z,100486.00
2023-08-09T13:41:55.386Z,100486.20
2023-08-09T13:44:25.773Z,100492.20
2023-08-09T13:46:53.933Z,100492.80
2023-08-09T13:49:21.779Z,100491.00
2023-08-09T13:51:49.661Z,100496.40
2023-08-09T13:54:17.715Z,100501.20
2023-08-09T13:56:45.694Z,100501.00
2023-08-09T13:59:15.141Z,100498.80
2023-08-09T14:01:43.007Z,100499.80
2023-08-09T14:04:11.535Z,100502.40
2023-08-09T14:06:39.457Z,100508.20
2023-08-09T14:09:09.449Z,100505.20
2023-08-09T14:11:38.169Z,100518.40
2023-08-09T14:14:06.039Z,100516.20
2023-08-09T14:16:33.863Z,100513.40
2023-08-09T14:19:01.740Z,100519.80
2023-08-09T14:21:29.693Z,100523.60
2023-08-09T14:23:57.646Z,100521.40
2023-08-09T14:26:25.578Z,100531.00
2023-08-09T14:28:53.443Z,100539.20
2023-08-09T14:31:21.651Z,100542.60
2023-08-09T14:33:50.576Z,100541.00
2023-08-09T14:36:18.469Z,100547.60
2023-08-09T14:38:46.762Z,100551.20
2023-08-09T14:41:15.241Z,100556.20
2023-08-09T14:43:43.678Z,100562.80
2023-08-09T14:46:14.577Z,100563.00
2023-08-09T14:48:45.808Z,100566.20
2023-08-09T14:51:20.989Z,100565.80
2023-08-09T14:53:48.834Z,100560.60
2023-08-09T14:56:16.669Z,100564.60
2023-08-09T14:58:46.205Z,100567.60
2023-08-09T15:01:14.150Z,100568.80
2023-08-09T15:03:42.198Z,100569.20
2023-08-09T15:06:12.466Z,100577.00
2023-08-09T15:08:40.310Z,100577.60
2023-08-09T15:11:08.214Z,100590.20
2023-08-09T15:13:36.021Z,100589.80
2023-08-09T15:16:06.138Z,100598.60
2023-08-09T15:18:34.053Z,100602.80
2023-08-09T15:21:01.921Z,100609.20
2023-08-09T15:23:29.782Z,100617.80
2023-08-09T15:25:57.654Z,100632.00
2023-08-09T15:28:25.628Z,100641.00
2023-08-09T15:30:56.683Z,100637.60
2023-08-09T15:33:25.042Z,100637.20
2023-08-09T15:35:53.106Z,100641.60
2023-08-09T15:38:21.046Z,100637.60
2023-08-09T15:40:48.967Z,100641.00
2023-08-09T15:43:16.862Z,100639.40
2023-08-09T15:45:44.699Z,100640.40
2023-08-09T15:48:12.585Z,100640.40
2023-08-09T15:50:40.627Z,100646.80
2023-08-09T15:53:08.518Z,100652.00
2023-08-09T15:55:36.360Z,100655.40
2023-08-09T15:58:05.966Z,100657.60
2023-08-09T16:00:42.327Z,100668.60
2023-08-09T16:03:14.143Z,100675.40
2023-08-09T16:05:42.362Z,100686.20
2023-08-09T16:08:10.440Z,100701.00
2023-08-09T16:10:38.455Z,100711.40
2023-08-09T16:13:07.455Z,100707.20
2023-08-09T16:15:35.575Z,100709.00
2023-08-09T16:18:03.891Z,100713.80
2023-08-09T16:20:35.328Z,100729.80
2023-08-09T16:23:03.981Z,100733.00
2023-08-09T16:25:31.964Z,100730.60
2023-08-09T16:27:59.921Z,100728.00
2023-08-09T16:30:27.900Z,100723.80
2023-08-09T16:32:56.038Z,100730.60
2023-08-09T16:35:24.296Z,100727.60
2023-08-09T16:37:52.222Z,100730.20
2023-08-09T16:40:20.307Z,100733.20
2023-08-09T16:42:48.351Z,100734.80
2023-08-09T16:45:16.734Z,100741.00
2023-08-09T16:47:45.099Z,100743.20
2023-08-09T16:50:13.503Z,100743.80
2023-08-09T16:52:41.298Z,100750.80
2023-08-09T16:55:09.690Z,100754.80
2023-08-09T16:57:37.710Z,100754.20
2023-08-09T17:00:16.130Z,100762.80
2023-08-09T17:02:44.921Z,100764.20
2023-08-09T17:05:15.281Z,100768.00
2023-08-09T17:07:43.686Z,100764.40
2023-08-09T17:10:12.972Z,100767.80
2023-08-09T17:12:42.565Z,100768.80
2023-08-09T17:15:10.661Z,100770.80
2023-08-09T17:17:38.688Z,100776.00
2023-08-09T17:20:08.088Z,100775.80
2023-08-09T17:22:35.993Z,100775.40
2023-08-09T17:25:04.132Z,100775.60
2023-08-09T17:27:32.139Z,100776.00
2023-08-09T17:30:00.203Z,100770.80
2023-08-09T17:32:28.485Z,100766.20
2023-08-09T17:34:56.895Z,100776.80
2023-08-09T17:37:25.997Z,100779.40
2023-08-09T17:39:54.841Z,100780.40
2023-08-09T17:42:22.828Z,100780.80
2023-08-09T17:44:51.479Z,100784.40
2023-08-09T17:47:25.031Z,100791.40
2023-08-09T17:49:58.702Z,100794.40
2023-08-09T17:52:28.549Z,100799.80
2023-08-09T17:54:59.182Z,100801.40
2023-08-09T17:57:29.406Z,100802.20
2023-08-09T18:00:01.229Z,100815.20
2023-08-09T18:02:33.526Z,100811.20
2023-08-09T18:05:06.290Z,100808.80
2023-08-09T18:07:34.339Z,100813.00
2023-08-09T18:10:02.484Z,100816.00
2023-08-09T18:12:32.386Z,100812.60
2023-08-09T18:15:01.885Z,100815.20
2023-08-09T18:17:32.859Z,100820.80
2023-08-09T18:20:13.193Z,100827.40
2023-08-09T18:22:52.180Z,100830.00
2023-08-09T18:25:22.605Z,100835.20
2023-08-09T18:27:50.661Z,100834.80
2023-08-09T18:30:18.622Z,100842.40
2023-08-09T18:32:47.038Z,100845.20
2023-08-09T18:35:19.917Z,100846.00
2023-08-09T18:37:54.038Z,100847.20
2023-08-09T18:40:25.450Z,100849.00
2023-08-09T18:42:59.218Z,100853.20
2023-08-09T18:45:32.209Z,100860.80
2023-08-09T18:48:07.969Z,100854.80
2023-08-09T18:50:40.336Z,100862.00
2023-08-09T18:53:09.011Z,100859.00
2023-08-09T18:55:41.845Z,100864.00
2023-08-09T18:58:10.155Z,100863.80
2023-08-09T19:00:39.518Z,100863.20
2023-08-09T19:03:08.127Z,100867.20
2023-08-09T19:05:36.486Z,100862.20
2023-08-09T19:08:05.379Z,100858.60
2023-08-09T19:10:33.475Z,100858.80
2023-08-09T19:13:03.006Z,100862.40
2023-08-09T19:15:31.825Z,100863.60
2023-08-09T19:18:00.229Z,100866.00
2023-08-09T19:20:31.008Z,100864.60
2023-08-09T19:23:05.994Z,100870.80
2023-08-09T19:25:38.605Z,100874.40
2023-08-09T19:28:09.797Z,100876.60
2023-08-09T19:30:38.536Z,100881.60
2023-08-09T19:33:20.640Z,100878.60
2023-08-09T19:35:52.455Z,100883.80
2023-08-09T19:38:22.891Z,100883.60
2023-08-09T19:40:53.373Z,100887.00
2023-08-09T19:43:41.991Z,100887.00
2023-08-09T19:46:20.867Z,100886.40
2023-08-09T19:48:54.107Z,100889.40
2023-08-09T19:51:22.206Z,100888.80
2023-08-09T19:53:51.588Z,100886.60
2023-08-09T19:56:27.977Z,100895.00
2023-08-09T19:58:56.428Z,100896.60
2023-08-09T20:01:39.214Z,100896.00
2023-08-09T20:04:09.687Z,100909.20
2023-08-09T20:06:41.852Z,100901.60
2023-08-09T20:09:13.442Z,100904.20
2023-08-09T20:11:44.092Z,100907.80
2023-08-09T20:14:12.242Z,100903.00
2023-08-09T20:16:40.534Z,100902.80
2023-08-09T20:19:08.567Z,100904.40
2023-08-09T20:21:36.570Z,100901.40
2023-08-09T20:24:32.818Z,100901.40
2023-08-09T20:27:00.963Z,100898.40
2023-08-09T20:29:28.902Z,100900.00
2023-08-09T20:31:57.505Z,100901.60
2023-08-09T20:34:25.556Z,100905.80
2023-08-09T20:36:53.649Z,100912.80
2023-08-09T20:39:21.943Z,100917.00
2023-08-09T20:41:49.907Z,100919.00
2023-08-09T20:44:17.950Z,100925.40
2023-08-09T20:46:46.366Z,100925.60
2023-08-09T20:49:14.637Z,100928.00
2023-08-09T20:51:42.494Z,100929.40
2023-08-09T20:54:10.370Z,100928.80
2023-08-09T20:56:38.533Z,100928.60
2023-08-09T20:59:06.444Z,100923.80
2023-08-09T21:01:34.398Z,100922.00
2023-08-09T21:04:02.348Z,100922.80
2023-08-09T21:06:30.447Z,100923.20
2023-08-09T21:08:58.309Z,100923.20
2023-08-09T21:11:26.198Z,100931.20
2023-08-09T21:13:54.094Z,100927.40
2023-08-09T21:16:22.061Z,100926.60
2023-08-09T21:18:49.904Z,100933.00
2023-08-09T21:26:21.443Z,100939.80
2023-08-09T21:28:49.253Z,100935.60
2023-08-09T21:31:17.221Z,100941.00
2023-08-09T21:33:45.159Z,100941.20
2023-08-09T21:36:13.125Z,100947.40
2023-08-09T21:38:40.921Z,100941.60
2023-08-09T21:41:09.164Z,100942.00
2023-08-09T21:43:37.050Z,100946.20
2023-08-09T21:46:04.918Z,100949.00
2023-08-09T21:48:32.952Z,100946.40
2023-08-09T21:51:03.638Z,100948.20
2023-08-09T21:53:32.053Z,100947.40
2023-08-09T21:55:59.921Z,100943.80
2023-08-09T21:58:27.930Z,100938.40
2023-08-09T22:00:56.107Z,100937.80
2023-08-09T22:03:24.081Z,100946.80
2023-08-09T22:05:54.414Z,100944.20
2023-08-09T22:08:22.557Z,100941.40
2023-08-09T22:10:50.925Z,100938.40
2023-08-09T22:13:18.979Z,100941.80
2023-08-09T22:15:47.067Z,100939.20
2023-08-09T22:18:19.297Z,100935.20
2023-08-09T22:20:48.261Z,100935.00
2023-08-09T22:23:16.094Z,100944.60
2023-08-09T22:25:44.210Z,100946.60
2023-08-09T22:28:13.463Z,100941.60
2023-08-09T22:30:44.426Z,100946.40
2023-08-09T22:33:12.776Z,100949.20
2023-08-09T22:35:40.734Z,100951.20
2023-08-09T22:38:08.640Z,100951.20
2023-08-09T22:40:39.295Z,100952.20
2023-08-09T22:43:07.601Z,100952.60
2023-08-09T22:45:37.190Z,100952.40
2023-08-09T22:48:05.891Z,100957.40
2023-08-09T22:50:33.999Z,100951.60
2023-08-09T22:53:01.911Z,100954.60
2023-08-09T22:55:30.023Z,100948.00
2023-08-09T22:57:58.110Z,100949.00
2023-08-09T23:00:26.120Z,100943.20
2023-08-09T23:02:54.078Z,100950.40
2023-08-09T23:05:22.329Z,100944.80
2023-08-09T23:07:50.401Z,100945.80
2023-08-09T23:10:19.097Z,100948.80
2023-08-09T23:12:46.911Z,100949.80
2023-08-09T23:15:14.896Z,100957.00
2023-08-09T23:17:42.771Z,100960.40
2023-08-09T23:20:11.531Z,100961.40
2023-08-09T23:22:39.758Z,100968.40
2023-08-09T23:25:09.580Z,100968.00
2023-08-09T23:27:37.607Z,100974.20
2023-08-09T23:30:07.624Z,100972.60
2023-08-09T23:32:36.237Z,100973.40
2023-08-09T23:35:05.210Z,100970.60
2023-08-09T23:37:33.143Z,100985.60
2023-08-09T23:40:00.984Z,100985.80
2023-08-09T23:42:29.222Z,100988.60
2023-08-09T23:44:57.299Z,100984.40
2023-08-09T23:47:25.283Z,100986.20
2023-08-09T23:49:53.195Z,100985.20
2023-08-09T23:52:21.042Z,100982.80
2023-08-09T23:54:48.922Z,100979.40
2023-08-09T23:57:16.782Z,100984.20
2023-08-09T23:59:44.685Z,100986.40
